Pittsburgh, Pennsylvania
Traffic Map
Current Weather Conditions
Pittsburgh, Pennsylvania
Overcast
Overcast
62°
Feels Like: 62°
Wind Chill: 62° Ceiling: 1700
Heat Index: 62° Visibility: 10mi
Dew Point: 56° Wind: 16mph
Humidity: 80% Direction: 230° (SW)
Pressure: 30.18in Gusts: 32mph
Raw Report DataKAGC 231853Z 23014G28KT 10SM BKN017 OVC023 17/13 A3018 RMK AO2 PK WND 23028/1847 SLP227 T01670133
Traffic Incident Summary
Active as of:
Severity:
Category:
InformationThere was an issue retrieving the traffic information for this location. Please try a different location or try again shortly.
Advertisements